sensor_id;sensor_type;location;lat;lon;timestamp;P1;durP1;ratioP1;P2;durP2;ratioP2
4963;SDS011;2497;47.410;9.740;2022-08-18T00:02:19;6.00;;;4.67;;
4963;SDS011;2497;47.410;9.740;2022-08-18T00:04:49;5.10;;;3.80;;
4963;SDS011;2497;47.410;9.740;2022-08-18T00:07:20;4.47;;;3.93;;
4963;SDS011;2497;47.410;9.740;2022-08-18T00:09:49;5.83;;;3.93;;
4963;SDS011;2497;47.410;9.740;2022-08-18T00:12:18;5.63;;;4.20;;
4963;SDS011;2497;47.410;9.740;2022-08-18T00:14:49;5.77;;;3.73;;
4963;SDS011;2497;47.410;9.740;2022-08-18T00:17:17;4.97;;;3.60;;
4963;SDS011;2497;47.410;9.740;2022-08-18T00:19:46;9.27;;;4.80;;
4963;SDS011;2497;47.410;9.740;2022-08-18T00:22:15;6.83;;;4.30;;
4963;SDS011;2497;47.410;9.740;2022-08-18T00:24:46;5.80;;;4.03;;
4963;SDS011;2497;47.410;9.740;2022-08-18T00:27:16;6.33;;;4.63;;
4963;SDS011;2497;47.410;9.740;2022-08-18T00:29:46;6.53;;;4.37;;
4963;SDS011;2497;47.410;9.740;2022-08-18T00:32:14;5.97;;;4.17;;
4963;SDS011;2497;47.410;9.740;2022-08-18T00:34:42;8.80;;;4.80;;
4963;SDS011;2497;47.410;9.740;2022-08-18T00:37:09;6.43;;;4.37;;
4963;SDS011;2497;47.410;9.740;2022-08-18T00:39:37;6.57;;;4.17;;
4963;SDS011;2497;47.410;9.740;2022-08-18T00:42:13;8.17;;;4.40;;
4963;SDS011;2497;47.410;9.740;2022-08-18T00:44:43;4.87;;;3.80;;
4963;SDS011;2497;47.410;9.740;2022-08-18T00:47:11;6.40;;;4.43;;
4963;SDS011;2497;47.410;9.740;2022-08-18T00:49:39;6.00;;;4.63;;
4963;SDS011;2497;47.410;9.740;2022-08-18T00:52:08;7.33;;;4.70;;
4963;SDS011;2497;47.410;9.740;2022-08-18T00:54:38;5.60;;;4.30;;
4963;SDS011;2497;47.410;9.740;2022-08-18T00:57:08;5.80;;;3.90;;
4963;SDS011;2497;47.410;9.740;2022-08-18T00:59:38;8.10;;;4.70;;
4963;SDS011;2497;47.410;9.740;2022-08-18T01:02:10;8.30;;;4.07;;
4963;SDS011;2497;47.410;9.740;2022-08-18T01:04:42;5.30;;;4.00;;
4963;SDS011;2497;47.410;9.740;2022-08-18T01:07:15;6.60;;;4.33;;
4963;SDS011;2497;47.410;9.740;2022-08-18T01:09:45;8.13;;;4.70;;
4963;SDS011;2497;47.410;9.740;2022-08-18T01:12:13;6.80;;;4.33;;
4963;SDS011;2497;47.410;9.740;2022-08-18T01:14:43;5.80;;;4.10;;
4963;SDS011;2497;47.410;9.740;2022-08-18T01:17:11;7.30;;;5.00;;
4963;SDS011;2497;47.410;9.740;2022-08-18T01:19:56;6.07;;;3.90;;
4963;SDS011;2497;47.410;9.740;2022-08-18T01:22:47;6.80;;;4.50;;
4963;SDS011;2497;47.410;9.740;2022-08-18T01:25:20;8.10;;;4.23;;
4963;SDS011;2497;47.410;9.740;2022-08-18T01:28:21;6.80;;;4.10;;
4963;SDS011;2497;47.410;9.740;2022-08-18T01:31:11;5.90;;;4.20;;
4963;SDS011;2497;47.410;9.740;2022-08-18T01:33:54;5.40;;;4.10;;
4963;SDS011;2497;47.410;9.740;2022-08-18T01:36:23;6.30;;;4.30;;
4963;SDS011;2497;47.410;9.740;2022-08-18T01:38:52;5.50;;;4.40;;
4963;SDS011;2497;47.410;9.740;2022-08-18T01:41:20;9.53;;;4.20;;
4963;SDS011;2497;47.410;9.740;2022-08-18T01:43:49;8.50;;;3.93;;
4963;SDS011;2497;47.410;9.740;2022-08-18T01:46:17;6.67;;;4.50;;
4963;SDS011;2497;47.410;9.740;2022-08-18T01:48:45;9.33;;;5.40;;
4963;SDS011;2497;47.410;9.740;2022-08-18T01:51:13;8.03;;;4.67;;
4963;SDS011;2497;47.410;9.740;2022-08-18T01:53:44;6.50;;;4.50;;
4963;SDS011;2497;47.410;9.740;2022-08-18T01:56:14;9.37;;;4.90;;
4963;SDS011;2497;47.410;9.740;2022-08-18T01:58:43;7.57;;;4.73;;
4963;SDS011;2497;47.410;9.740;2022-08-18T02:01:12;7.20;;;4.70;;
4963;SDS011;2497;47.410;9.740;2022-08-18T02:03:40;7.70;;;4.40;;
4963;SDS011;2497;47.410;9.740;2022-08-18T02:06:13;6.90;;;4.63;;
4963;SDS011;2497;47.410;9.740;2022-08-18T02:08:42;9.30;;;5.67;;
4963;SDS011;2497;47.410;9.740;2022-08-18T02:11:10;7.37;;;4.97;;
4963;SDS011;2497;47.410;9.740;2022-08-18T02:13:41;9.63;;;4.77;;
4963;SDS011;2497;47.410;9.740;2022-08-18T02:16:08;7.93;;;5.03;;
4963;SDS011;2497;47.410;9.740;2022-08-18T02:18:36;6.73;;;4.47;;
4963;SDS011;2497;47.410;9.740;2022-08-18T02:21:05;11.83;;;5.40;;
4963;SDS011;2497;47.410;9.740;2022-08-18T02:23:35;6.93;;;5.13;;
4963;SDS011;2497;47.410;9.740;2022-08-18T02:26:05;6.77;;;4.90;;
4963;SDS011;2497;47.410;9.740;2022-08-18T02:28:34;9.73;;;5.23;;
4963;SDS011;2497;47.410;9.740;2022-08-18T02:31:07;10.03;;;5.60;;
4963;SDS011;2497;47.410;9.740;2022-08-18T02:33:35;10.40;;;5.60;;
4963;SDS011;2497;47.410;9.740;2022-08-18T02:36:03;6.93;;;5.13;;
4963;SDS011;2497;47.410;9.740;2022-08-18T02:38:31;6.87;;;4.80;;
4963;SDS011;2497;47.410;9.740;2022-08-18T02:41:00;8.10;;;5.40;;
4963;SDS011;2497;47.410;9.740;2022-08-18T02:43:30;13.77;;;5.30;;
4963;SDS011;2497;47.410;9.740;2022-08-18T02:45:58;7.13;;;4.83;;
4963;SDS011;2497;47.410;9.740;2022-08-18T02:48:27;8.27;;;5.30;;
4963;SDS011;2497;47.410;9.740;2022-08-18T02:50:59;9.30;;;6.07;;
4963;SDS011;2497;47.410;9.740;2022-08-18T02:53:27;7.73;;;5.40;;
4963;SDS011;2497;47.410;9.740;2022-08-18T02:55:55;6.67;;;4.80;;
4963;SDS011;2497;47.410;9.740;2022-08-18T02:58:31;8.30;;;5.00;;
4963;SDS011;2497;47.410;9.740;2022-08-18T03:00:59;9.10;;;5.60;;
4963;SDS011;2497;47.410;9.740;2022-08-18T03:03:28;10.10;;;5.57;;
4963;SDS011;2497;47.410;9.740;2022-08-18T03:05:57;9.33;;;5.70;;
4963;SDS011;2497;47.410;9.740;2022-08-18T03:08:24;14.33;;;4.83;;
4963;SDS011;2497;47.410;9.740;2022-08-18T03:10:51;6.07;;;4.60;;
4963;SDS011;2497;47.410;9.740;2022-08-18T03:13:19;8.30;;;5.20;;
4963;SDS011;2497;47.410;9.740;2022-08-18T03:15:47;7.23;;;4.80;;
4963;SDS011;2497;47.410;9.740;2022-08-18T03:18:15;10.00;;;5.27;;
4963;SDS011;2497;47.410;9.740;2022-08-18T03:20:44;6.47;;;4.53;;
4963;SDS011;2497;47.410;9.740;2022-08-18T03:23:11;9.10;;;4.83;;
4963;SDS011;2497;47.410;9.740;2022-08-18T03:25:42;7.83;;;5.00;;
4963;SDS011;2497;47.410;9.740;2022-08-18T03:28:12;7.90;;;4.73;;
4963;SDS011;2497;47.410;9.740;2022-08-18T03:30:41;10.30;;;5.27;;
4963;SDS011;2497;47.410;9.740;2022-08-18T03:33:08;7.27;;;4.63;;
4963;SDS011;2497;47.410;9.740;2022-08-18T03:35:36;8.87;;;5.03;;
4963;SDS011;2497;47.410;9.740;2022-08-18T03:38:05;11.23;;;5.50;;
4963;SDS011;2497;47.410;9.740;2022-08-18T03:40:32;8.90;;;5.57;;
4963;SDS011;2497;47.410;9.740;2022-08-18T03:43:01;7.70;;;5.10;;
4963;SDS011;2497;47.410;9.740;2022-08-18T03:45:31;7.63;;;5.13;;
4963;SDS011;2497;47.410;9.740;2022-08-18T03:47:59;9.13;;;5.80;;
4963;SDS011;2497;47.410;9.740;2022-08-18T03:50:27;11.90;;;4.93;;
4963;SDS011;2497;47.410;9.740;2022-08-18T03:52:56;11.43;;;5.30;;
4963;SDS011;2497;47.410;9.740;2022-08-18T03:55:26;7.63;;;4.90;;
4963;SDS011;2497;47.410;9.740;2022-08-18T03:57:58;7.10;;;4.83;;
4963;SDS011;2497;47.410;9.740;2022-08-18T04:00:27;8.07;;;4.83;;
4963;SDS011;2497;47.410;9.740;2022-08-18T04:02:55;9.80;;;5.47;;
4963;SDS011;2497;47.410;9.740;2022-08-18T04:05:23;7.53;;;4.80;;
4963;SDS011;2497;47.410;9.740;2022-08-18T04:07:52;6.70;;;5.10;;
4963;SDS011;2497;47.410;9.740;2022-08-18T04:10:21;6.57;;;4.63;;
4963;SDS011;2497;47.410;9.740;2022-08-18T04:12:50;11.57;;;5.50;;
4963;SDS011;2497;47.410;9.740;2022-08-18T04:15:18;5.97;;;4.30;;
4963;SDS011;2497;47.410;9.740;2022-08-18T04:17:45;8.00;;;5.07;;
4963;SDS011;2497;47.410;9.740;2022-08-18T04:20:12;6.80;;;4.57;;
4963;SDS011;2497;47.410;9.740;2022-08-18T04:22:40;10.20;;;5.27;;
4963;SDS011;2497;47.410;9.740;2022-08-18T04:25:09;10.77;;;5.00;;
4963;SDS011;2497;47.410;9.740;2022-08-18T04:27:36;6.40;;;5.20;;
4963;SDS011;2497;47.410;9.740;2022-08-18T04:30:09;7.13;;;5.27;;
4963;SDS011;2497;47.410;9.740;2022-08-18T04:32:38;7.33;;;4.80;;
4963;SDS011;2497;47.410;9.740;2022-08-18T04:35:06;8.90;;;5.03;;
4963;SDS011;2497;47.410;9.740;2022-08-18T04:38:57;8.10;;;4.80;;
4963;SDS011;2497;47.410;9.740;2022-08-18T04:40:53;8.40;;;5.20;;
4963;SDS011;2497;47.410;9.740;2022-08-18T04:57:26;13.97;;;7.20;;
4963;SDS011;2497;47.410;9.740;2022-08-18T05:03:29;17.40;;;6.73;;
4963;SDS011;2497;47.410;9.740;2022-08-18T05:05:57;12.63;;;7.27;;
4963;SDS011;2497;47.410;9.740;2022-08-18T05:08:25;14.53;;;6.50;;
4963;SDS011;2497;47.410;9.740;2022-08-18T05:10:52;11.23;;;7.00;;
4963;SDS011;2497;47.410;9.740;2022-08-18T05:13:23;14.13;;;6.90;;
4963;SDS011;2497;47.410;9.740;2022-08-18T05:15:51;12.57;;;6.60;;
4963;SDS011;2497;47.410;9.740;2022-08-18T05:18:20;10.80;;;6.50;;
4963;SDS011;2497;47.410;9.740;2022-08-18T05:20:57;9.00;;;6.30;;
4963;SDS011;2497;47.410;9.740;2022-08-18T05:23:33;11.90;;;7.20;;
4963;SDS011;2497;47.410;9.740;2022-08-18T05:26:03;10.53;;;6.97;;
4963;SDS011;2497;47.410;9.740;2022-08-18T05:28:57;11.17;;;7.17;;
4963;SDS011;2497;47.410;9.740;2022-08-18T05:31:26;15.53;;;6.73;;
4963;SDS011;2497;47.410;9.740;2022-08-18T05:33:55;9.97;;;6.77;;
4963;SDS011;2497;47.410;9.740;2022-08-18T05:36:30;15.77;;;7.53;;
4963;SDS011;2497;47.410;9.740;2022-08-18T05:39:14;14.17;;;7.43;;
4963;SDS011;2497;47.410;9.740;2022-08-18T05:41:51;9.93;;;7.23;;
4963;SDS011;2497;47.410;9.740;2022-08-18T05:44:23;15.00;;;7.07;;
4963;SDS011;2497;47.410;9.740;2022-08-18T05:46:53;13.63;;;7.87;;
4963;SDS011;2497;47.410;9.740;2022-08-18T05:49:28;13.60;;;7.07;;
4963;SDS011;2497;47.410;9.740;2022-08-18T05:51:57;12.10;;;7.67;;
4963;SDS011;2497;47.410;9.740;2022-08-18T05:54:29;13.60;;;8.03;;
4963;SDS011;2497;47.410;9.740;2022-08-18T05:57:21;18.37;;;8.67;;
4963;SDS011;2497;47.410;9.740;2022-08-18T05:59:53;20.10;;;9.40;;
4963;SDS011;2497;47.410;9.740;2022-08-18T06:02:25;15.60;;;8.60;;
4963;SDS011;2497;47.410;9.740;2022-08-18T06:04:58;13.30;;;8.73;;
4963;SDS011;2497;47.410;9.740;2022-08-18T06:07:33;14.30;;;8.47;;
4963;SDS011;2497;47.410;9.740;2022-08-18T06:10:03;17.07;;;8.93;;
4963;SDS011;2497;47.410;9.740;2022-08-18T06:12:33;12.10;;;7.90;;
4963;SDS011;2497;47.410;9.740;2022-08-18T06:15:06;16.77;;;8.13;;
4963;SDS011;2497;47.410;9.740;2022-08-18T06:20:35;12.43;;;7.00;;
4963;SDS011;2497;47.410;9.740;2022-08-18T06:23:21;12.47;;;7.77;;
4963;SDS011;2497;47.410;9.740;2022-08-18T06:25:57;11.53;;;7.20;;
4963;SDS011;2497;47.410;9.740;2022-08-18T06:28:36;13.60;;;7.80;;
4963;SDS011;2497;47.410;9.740;2022-08-18T06:31:17;13.00;;;7.40;;
4963;SDS011;2497;47.410;9.740;2022-08-18T06:34:15;13.97;;;7.63;;
4963;SDS011;2497;47.410;9.740;2022-08-18T06:37:12;14.50;;;8.30;;
4963;SDS011;2497;47.410;9.740;2022-08-18T06:40:36;16.30;;;9.73;;
4963;SDS011;2497;47.410;9.740;2022-08-18T06:44:08;17.87;;;9.63;;
4963;SDS011;2497;47.410;9.740;2022-08-18T06:46:57;21.83;;;9.57;;
4963;SDS011;2497;47.410;9.740;2022-08-18T06:49:34;17.43;;;9.70;;
4963;SDS011;2497;47.410;9.740;2022-08-18T06:52:21;15.07;;;9.03;;
4963;SDS011;2497;47.410;9.740;2022-08-18T06:54:51;23.83;;;8.87;;
4963;SDS011;2497;47.410;9.740;2022-08-18T06:57:21;16.93;;;8.97;;
4963;SDS011;2497;47.410;9.740;2022-08-18T06:59:57;15.37;;;9.40;;
4963;SDS011;2497;47.410;9.740;2022-08-18T07:02:36;14.37;;;8.47;;
4963;SDS011;2497;47.410;9.740;2022-08-18T07:05:14;14.27;;;8.60;;
4963;SDS011;2497;47.410;9.740;2022-08-18T07:07:44;13.80;;;8.83;;
4963;SDS011;2497;47.410;9.740;2022-08-18T07:10:29;15.07;;;8.17;;
4963;SDS011;2497;47.410;9.740;2022-08-18T07:13:05;17.57;;;9.60;;
4963;SDS011;2497;47.410;9.740;2022-08-18T07:15:44;15.37;;;8.70;;
4963;SDS011;2497;47.410;9.740;2022-08-18T07:18:15;17.40;;;8.83;;
4963;SDS011;2497;47.410;9.740;2022-08-18T07:21:22;11.97;;;8.60;;
4963;SDS011;2497;47.410;9.740;2022-08-18T07:24:17;11.27;;;7.57;;
4963;SDS011;2497;47.410;9.740;2022-08-18T07:27:08;13.83;;;8.67;;
4963;SDS011;2497;47.410;9.740;2022-08-18T07:29:38;14.23;;;8.03;;
4963;SDS011;2497;47.410;9.740;2022-08-18T07:32:10;10.77;;;7.00;;
4963;SDS011;2497;47.410;9.740;2022-08-18T07:34:43;13.83;;;7.77;;
4963;SDS011;2497;47.410;9.740;2022-08-18T07:37:16;11.53;;;6.50;;
4963;SDS011;2497;47.410;9.740;2022-08-18T07:39:49;10.80;;;6.57;;
4963;SDS011;2497;47.410;9.740;2022-08-18T07:42:22;10.27;;;6.47;;
4963;SDS011;2497;47.410;9.740;2022-08-18T07:44:56;13.40;;;6.90;;
4963;SDS011;2497;47.410;9.740;2022-08-18T07:47:29;14.47;;;8.00;;
4963;SDS011;2497;47.410;9.740;2022-08-18T07:50:02;9.17;;;6.37;;
4963;SDS011;2497;47.410;9.740;2022-08-18T07:52:36;13.10;;;8.07;;
4963;SDS011;2497;47.410;9.740;2022-08-18T07:55:13;11.73;;;7.50;;
4963;SDS011;2497;47.410;9.740;2022-08-18T07:57:50;12.30;;;7.67;;
4963;SDS011;2497;47.410;9.740;2022-08-18T08:00:22;14.47;;;8.20;;
4963;SDS011;2497;47.410;9.740;2022-08-18T08:02:57;17.67;;;8.90;;
4963;SDS011;2497;47.410;9.740;2022-08-18T08:05:37;12.67;;;8.03;;
4963;SDS011;2497;47.410;9.740;2022-08-18T08:08:14;12.77;;;8.10;;
4963;SDS011;2497;47.410;9.740;2022-08-18T08:10:49;12.73;;;7.83;;
4963;SDS011;2497;47.410;9.740;2022-08-18T08:13:31;11.63;;;7.77;;
4963;SDS011;2497;47.410;9.740;2022-08-18T08:16:08;13.80;;;6.97;;
4963;SDS011;2497;47.410;9.740;2022-08-18T08:18:45;12.50;;;7.00;;
4963;SDS011;2497;47.410;9.740;2022-08-18T08:21:20;15.03;;;6.73;;
4963;SDS011;2497;47.410;9.740;2022-08-18T08:23:59;13.40;;;8.77;;
4963;SDS011;2497;47.410;9.740;2022-08-18T08:26:40;11.00;;;7.20;;
4963;SDS011;2497;47.410;9.740;2022-08-18T08:29:18;9.53;;;6.33;;
4963;SDS011;2497;47.410;9.740;2022-08-18T08:31:55;9.10;;;6.10;;
4963;SDS011;2497;47.410;9.740;2022-08-18T08:34:29;9.23;;;6.00;;
4963;SDS011;2497;47.410;9.740;2022-08-18T08:37:06;13.30;;;6.07;;
4963;SDS011;2497;47.410;9.740;2022-08-18T08:39:40;11.50;;;6.43;;
4963;SDS011;2497;47.410;9.740;2022-08-18T08:42:13;10.27;;;6.13;;
4963;SDS011;2497;47.410;9.740;2022-08-18T08:44:46;10.20;;;6.10;;
4963;SDS011;2497;47.410;9.740;2022-08-18T08:47:20;12.47;;;6.00;;
4963;SDS011;2497;47.410;9.740;2022-08-18T08:49:53;11.80;;;6.53;;
4963;SDS011;2497;47.410;9.740;2022-08-18T08:55:36;9.40;;;5.90;;
4963;SDS011;2497;47.410;9.740;2022-08-18T08:58:13;8.63;;;6.13;;
4963;SDS011;2497;47.410;9.740;2022-08-18T09:00:44;8.10;;;6.00;;
4963;SDS011;2497;47.410;9.740;2022-08-18T09:03:25;10.03;;;6.47;;
4963;SDS011;2497;47.410;9.740;2022-08-18T09:06:02;13.30;;;7.33;;
4963;SDS011;2497;47.410;9.740;2022-08-18T09:08:44;11.60;;;6.37;;
4963;SDS011;2497;47.410;9.740;2022-08-18T09:11:32;10.77;;;6.93;;
4963;SDS011;2497;47.410;9.740;2022-08-18T09:14:35;10.47;;;6.90;;
4963;SDS011;2497;47.410;9.740;2022-08-18T09:17:31;14.93;;;6.90;;
4963;SDS011;2497;47.410;9.740;2022-08-18T09:20:17;15.40;;;7.07;;
4963;SDS011;2497;47.410;9.740;2022-08-18T09:22:58;9.87;;;6.53;;
4963;SDS011;2497;47.410;9.740;2022-08-18T09:25:43;11.87;;;7.60;;
4963;SDS011;2497;47.410;9.740;2022-08-18T09:28:15;13.57;;;7.40;;
4963;SDS011;2497;47.410;9.740;2022-08-18T09:31:16;11.83;;;7.17;;
4963;SDS011;2497;47.410;9.740;2022-08-18T09:37:12;9.23;;;6.10;;
4963;SDS011;2497;47.410;9.740;2022-08-18T09:39:50;8.13;;;6.17;;
4963;SDS011;2497;47.410;9.740;2022-08-18T09:42:47;11.10;;;6.60;;
4963;SDS011;2497;47.410;9.740;2022-08-18T09:45:39;9.23;;;5.87;;
4963;SDS011;2497;47.410;9.740;2022-08-18T09:48:23;9.93;;;7.10;;
4963;SDS011;2497;47.410;9.740;2022-08-18T09:50:57;10.50;;;6.27;;
4963;SDS011;2497;47.410;9.740;2022-08-18T09:53:53;16.57;;;8.60;;
4963;SDS011;2497;47.410;9.740;2022-08-18T09:59:51;11.70;;;7.20;;
4963;SDS011;2497;47.410;9.740;2022-08-18T10:05:35;14.13;;;7.17;;
4963;SDS011;2497;47.410;9.740;2022-08-18T10:08:26;12.40;;;7.90;;
4963;SDS011;2497;47.410;9.740;2022-08-18T10:11:17;8.80;;;6.60;;
4963;SDS011;2497;47.410;9.740;2022-08-18T10:14:01;11.90;;;6.40;;
4963;SDS011;2497;47.410;9.740;2022-08-18T10:16:46;10.20;;;6.00;;
4963;SDS011;2497;47.410;9.740;2022-08-18T10:19:20;11.07;;;7.07;;
4963;SDS011;2497;47.410;9.740;2022-08-18T10:22:04;10.33;;;7.30;;
4963;SDS011;2497;47.410;9.740;2022-08-18T10:24:34;11.47;;;6.80;;
4963;SDS011;2497;47.410;9.740;2022-08-18T10:27:11;11.30;;;6.93;;
4963;SDS011;2497;47.410;9.740;2022-08-18T10:33:54;8.53;;;6.10;;
4963;SDS011;2497;47.410;9.740;2022-08-18T10:36:44;8.07;;;6.17;;
4963;SDS011;2497;47.410;9.740;2022-08-18T10:39:15;12.40;;;6.10;;
4963;SDS011;2497;47.410;9.740;2022-08-18T10:41:56;9.50;;;6.50;;
4963;SDS011;2497;47.410;9.740;2022-08-18T10:44:30;11.77;;;6.50;;
4963;SDS011;2497;47.410;9.740;2022-08-18T10:47:02;8.80;;;6.27;;
4963;SDS011;2497;47.410;9.740;2022-08-18T10:49:33;11.90;;;7.47;;
4963;SDS011;2497;47.410;9.740;2022-08-18T10:55:35;11.77;;;7.20;;
4963;SDS011;2497;47.410;9.740;2022-08-18T10:58:14;9.47;;;7.07;;
4963;SDS011;2497;47.410;9.740;2022-08-18T11:00:58;11.67;;;6.63;;
4963;SDS011;2497;47.410;9.740;2022-08-18T11:03:35;12.47;;;8.30;;
4963;SDS011;2497;47.410;9.740;2022-08-18T11:06:17;9.77;;;7.60;;
4963;SDS011;2497;47.410;9.740;2022-08-18T11:08:49;11.70;;;7.70;;
4963;SDS011;2497;47.410;9.740;2022-08-18T11:11:21;11.13;;;7.27;;
4963;SDS011;2497;47.410;9.740;2022-08-18T11:19:59;9.67;;;6.87;;
4963;SDS011;2497;47.410;9.740;2022-08-18T11:22:30;10.80;;;6.80;;
4963;SDS011;2497;47.410;9.740;2022-08-18T11:24:58;11.93;;;7.67;;
4963;SDS011;2497;47.410;9.740;2022-08-18T11:27:28;11.07;;;6.47;;
4963;SDS011;2497;47.410;9.740;2022-08-18T11:29:58;12.33;;;7.30;;
4963;SDS011;2497;47.410;9.740;2022-08-18T11:32:27;12.60;;;7.17;;
4963;SDS011;2497;47.410;9.740;2022-08-18T11:35:00;11.40;;;7.53;;
4963;SDS011;2497;47.410;9.740;2022-08-18T11:37:37;13.53;;;6.87;;
4963;SDS011;2497;47.410;9.740;2022-08-18T11:40:11;10.70;;;6.80;;
4963;SDS011;2497;47.410;9.740;2022-08-18T11:42:53;14.20;;;7.10;;
4963;SDS011;2497;47.410;9.740;2022-08-18T11:45:26;12.03;;;6.90;;
4963;SDS011;2497;47.410;9.740;2022-08-18T11:47:58;11.83;;;7.50;;
4963;SDS011;2497;47.410;9.740;2022-08-18T11:50:28;12.67;;;7.80;;
4963;SDS011;2497;47.410;9.740;2022-08-18T11:53:13;12.07;;;6.03;;
4963;SDS011;2497;47.410;9.740;2022-08-18T11:56:00;10.00;;;6.47;;
4963;SDS011;2497;47.410;9.740;2022-08-18T12:02:01;10.70;;;6.40;;
4963;SDS011;2497;47.410;9.740;2022-08-18T12:04:31;9.90;;;6.27;;
4963;SDS011;2497;47.410;9.740;2022-08-18T12:07:05;12.80;;;6.30;;
4963;SDS011;2497;47.410;9.740;2022-08-18T12:09:38;10.90;;;6.53;;
4963;SDS011;2497;47.410;9.740;2022-08-18T12:12:18;9.70;;;6.27;;
4963;SDS011;2497;47.410;9.740;2022-08-18T12:15:04;10.23;;;6.10;;
4963;SDS011;2497;47.410;9.740;2022-08-18T12:19:59;10.80;;;5.90;;
4963;SDS011;2497;47.410;9.740;2022-08-18T12:20:50;10.93;;;5.90;;
4963;SDS011;2497;47.410;9.740;2022-08-18T12:23:18;7.77;;;5.63;;
4963;SDS011;2497;47.410;9.740;2022-08-18T12:25:48;8.90;;;6.30;;
4963;SDS011;2497;47.410;9.740;2022-08-18T12:28:15;9.63;;;6.20;;
4963;SDS011;2497;47.410;9.740;2022-08-18T12:30:45;10.70;;;6.63;;
4963;SDS011;2497;47.410;9.740;2022-08-18T12:33:13;11.13;;;6.63;;
4963;SDS011;2497;47.410;9.740;2022-08-18T12:35:40;9.07;;;6.10;;
4963;SDS011;2497;47.410;9.740;2022-08-18T12:38:08;11.50;;;6.67;;
4963;SDS011;2497;47.410;9.740;2022-08-18T12:40:37;10.03;;;7.03;;
4963;SDS011;2497;47.410;9.740;2022-08-18T12:43:07;12.70;;;6.60;;
4963;SDS011;2497;47.410;9.740;2022-08-18T12:45:35;13.67;;;6.50;;
4963;SDS011;2497;47.410;9.740;2022-08-18T12:48:02;9.67;;;6.37;;
4963;SDS011;2497;47.410;9.740;2022-08-18T12:50:30;9.70;;;6.70;;
4963;SDS011;2497;47.410;9.740;2022-08-18T12:52:58;9.00;;;6.10;;
4963;SDS011;2497;47.410;9.740;2022-08-18T12:55:26;11.30;;;7.27;;
4963;SDS011;2497;47.410;9.740;2022-08-18T12:57:56;8.83;;;5.47;;
4963;SDS011;2497;47.410;9.740;2022-08-18T13:00:25;10.53;;;7.10;;
4963;SDS011;2497;47.410;9.740;2022-08-18T13:02:52;13.23;;;7.23;;
4963;SDS011;2497;47.410;9.740;2022-08-18T13:05:20;10.67;;;6.50;;
4963;SDS011;2497;47.410;9.740;2022-08-18T13:07:48;13.37;;;6.17;;
4963;SDS011;2497;47.410;9.740;2022-08-18T13:10:16;8.57;;;6.23;;
4963;SDS011;2497;47.410;9.740;2022-08-18T13:12:44;9.23;;;5.70;;
4963;SDS011;2497;47.410;9.740;2022-08-18T13:15:11;10.73;;;6.60;;
4963;SDS011;2497;47.410;9.740;2022-08-18T13:17:40;13.20;;;6.83;;
4963;SDS011;2497;47.410;9.740;2022-08-18T13:20:08;9.63;;;6.57;;
4963;SDS011;2497;47.410;9.740;2022-08-18T13:22:37;10.23;;;6.27;;
4963;SDS011;2497;47.410;9.740;2022-08-18T13:25:06;11.87;;;7.40;;
4963;SDS011;2497;47.410;9.740;2022-08-18T13:27:35;13.80;;;7.23;;
4963;SDS011;2497;47.410;9.740;2022-08-18T13:30:04;13.27;;;7.77;;
4963;SDS011;2497;47.410;9.740;2022-08-18T13:32:33;8.73;;;6.40;;
4963;SDS011;2497;47.410;9.740;2022-08-18T13:35:03;12.63;;;7.60;;
4963;SDS011;2497;47.410;9.740;2022-08-18T13:37:31;13.23;;;7.03;;
4963;SDS011;2497;47.410;9.740;2022-08-18T13:40:00;9.80;;;6.63;;
4963;SDS011;2497;47.410;9.740;2022-08-18T13:42:27;9.10;;;6.83;;
4963;SDS011;2497;47.410;9.740;2022-08-18T13:44:57;10.13;;;7.07;;
4963;SDS011;2497;47.410;9.740;2022-08-18T13:47:25;12.60;;;6.67;;
4963;SDS011;2497;47.410;9.740;2022-08-18T13:49:55;11.07;;;7.03;;
4963;SDS011;2497;47.410;9.740;2022-08-18T13:52:25;27.93;;;16.80;;
4963;SDS011;2497;47.410;9.740;2022-08-18T13:54:53;14.83;;;9.20;;
4963;SDS011;2497;47.410;9.740;2022-08-18T13:57:20;12.43;;;7.30;;
4963;SDS011;2497;47.410;9.740;2022-08-18T13:59:48;13.37;;;7.43;;
4963;SDS011;2497;47.410;9.740;2022-08-18T14:02:15;14.73;;;8.53;;
4963;SDS011;2497;47.410;9.740;2022-08-18T14:04:43;13.20;;;7.80;;
4963;SDS011;2497;47.410;9.740;2022-08-18T14:07:12;12.77;;;8.03;;
4963;SDS011;2497;47.410;9.740;2022-08-18T14:09:43;15.90;;;9.40;;
4963;SDS011;2497;47.410;9.740;2022-08-18T14:12:13;14.33;;;8.67;;
4963;SDS011;2497;47.410;9.740;2022-08-18T14:14:43;19.60;;;10.43;;
4963;SDS011;2497;47.410;9.740;2022-08-18T14:17:11;20.00;;;11.20;;
4963;SDS011;2497;47.410;9.740;2022-08-18T14:19:39;20.17;;;10.97;;
4963;SDS011;2497;47.410;9.740;2022-08-18T14:22:24;22.17;;;11.80;;
4963;SDS011;2497;47.410;9.740;2022-08-18T14:25:10;17.90;;;10.80;;
4963;SDS011;2497;47.410;9.740;2022-08-18T14:27:55;20.53;;;12.03;;
4963;SDS011;2497;47.410;9.740;2022-08-18T14:30:23;21.40;;;12.13;;
4963;SDS011;2497;47.410;9.740;2022-08-18T14:32:50;22.50;;;13.03;;
4963;SDS011;2497;47.410;9.740;2022-08-18T14:35:18;25.97;;;13.90;;
4963;SDS011;2497;47.410;9.740;2022-08-18T14:37:46;21.63;;;12.97;;
4963;SDS011;2497;47.410;9.740;2022-08-18T14:40:15;20.50;;;12.37;;
4963;SDS011;2497;47.410;9.740;2022-08-18T14:42:43;65.03;;;33.17;;
4963;SDS011;2497;47.410;9.740;2022-08-18T14:45:11;29.77;;;14.50;;
4963;SDS011;2497;47.410;9.740;2022-08-18T14:47:39;34.70;;;17.67;;
4963;SDS011;2497;47.410;9.740;2022-08-18T14:50:08;30.07;;;16.17;;
4963;SDS011;2497;47.410;9.740;2022-08-18T14:52:37;28.03;;;14.33;;
4963;SDS011;2497;47.410;9.740;2022-08-18T14:55:06;26.17;;;14.30;;
4963;SDS011;2497;47.410;9.740;2022-08-18T14:57:37;29.13;;;15.83;;
4963;SDS011;2497;47.410;9.740;2022-08-18T15:00:06;26.60;;;15.83;;
4963;SDS011;2497;47.410;9.740;2022-08-18T15:02:36;36.53;;;17.97;;
4963;SDS011;2497;47.410;9.740;2022-08-18T15:05:18;32.10;;;14.97;;
4963;SDS011;2497;47.410;9.740;2022-08-18T15:07:45;103.07;;;53.07;;
4963;SDS011;2497;47.410;9.740;2022-08-18T15:10:13;30.80;;;17.97;;
4963;SDS011;2497;47.410;9.740;2022-08-18T15:12:42;30.10;;;16.30;;
4963;SDS011;2497;47.410;9.740;2022-08-18T15:15:11;28.13;;;15.70;;
4963;SDS011;2497;47.410;9.740;2022-08-18T15:17:40;34.33;;;17.00;;
4963;SDS011;2497;47.410;9.740;2022-08-18T15:20:10;29.50;;;15.50;;
4963;SDS011;2497;47.410;9.740;2022-08-18T15:22:38;26.27;;;14.60;;
4963;SDS011;2497;47.410;9.740;2022-08-18T15:25:23;32.30;;;16.37;;
4963;SDS011;2497;47.410;9.740;2022-08-18T15:28:10;43.23;;;16.20;;
4963;SDS011;2497;47.410;9.740;2022-08-18T15:30:42;42.07;;;16.27;;
4963;SDS011;2497;47.410;9.740;2022-08-18T15:33:10;28.67;;;14.67;;
4963;SDS011;2497;47.410;9.740;2022-08-18T15:35:38;34.40;;;16.33;;
4963;SDS011;2497;47.410;9.740;2022-08-18T15:38:06;32.73;;;15.60;;
4963;SDS011;2497;47.410;9.740;2022-08-18T15:40:33;31.73;;;15.20;;
4963;SDS011;2497;47.410;9.740;2022-08-18T15:43:04;28.97;;;13.90;;
4963;SDS011;2497;47.410;9.740;2022-08-18T15:45:35;43.90;;;15.57;;
4963;SDS011;2497;47.410;9.740;2022-08-18T15:48:04;37.03;;;15.07;;
4963;SDS011;2497;47.410;9.740;2022-08-18T15:50:32;26.47;;;15.23;;
4963;SDS011;2497;47.410;9.740;2022-08-18T15:53:00;34.83;;;13.23;;
4963;SDS011;2497;47.410;9.740;2022-08-18T15:55:30;25.43;;;12.97;;
4963;SDS011;2497;47.410;9.740;2022-08-18T15:58:00;22.60;;;12.27;;
4963;SDS011;2497;47.410;9.740;2022-08-18T16:00:28;28.13;;;12.20;;
4963;SDS011;2497;47.410;9.740;2022-08-18T16:02:59;20.67;;;12.07;;
4963;SDS011;2497;47.410;9.740;2022-08-18T16:05:31;26.83;;;12.63;;
4963;SDS011;2497;47.410;9.740;2022-08-18T16:08:01;22.30;;;13.30;;
4963;SDS011;2497;47.410;9.740;2022-08-18T16:10:31;23.97;;;11.77;;
4963;SDS011;2497;47.410;9.740;2022-08-18T16:13:01;21.50;;;11.30;;
4963;SDS011;2497;47.410;9.740;2022-08-18T16:15:29;15.13;;;10.10;;
4963;SDS011;2497;47.410;9.740;2022-08-18T16:18:02;19.57;;;10.77;;
4963;SDS011;2497;47.410;9.740;2022-08-18T16:20:31;21.50;;;10.67;;
4963;SDS011;2497;47.410;9.740;2022-08-18T16:22:58;19.37;;;10.83;;
4963;SDS011;2497;47.410;9.740;2022-08-18T16:25:26;21.03;;;11.50;;
4963;SDS011;2497;47.410;9.740;2022-08-18T16:27:54;16.77;;;10.87;;
4963;SDS011;2497;47.410;9.740;2022-08-18T16:30:24;18.03;;;11.03;;
4963;SDS011;2497;47.410;9.740;2022-08-18T16:32:53;23.53;;;10.83;;
4963;SDS011;2497;47.410;9.740;2022-08-18T16:35:27;25.03;;;12.13;;